LFMD/CEQ METAR and TAF weather

Enter ICAO airport designator
Station Type Date Time Source
LFMD METAR 2020/09/20 14:30 UTC NOAA

LFMD 201430Z AUTO 14006KT 100V180 9999 BKN026 BKN031 OVC040 25/19 Q1013 TEMPO VRB15G30KT 2000 TSRA BKN030CB


Station Type Date Time Source
LFMD Decoded METAR 2020/09/20 14:30 UTC NOAA

Cannes, France (LFMD) 43-33N 006-57E 9M
Sep 20, 2020 - 10:30 AM EDT / 2020.09.20 1430 UTC
Wind: from the SE (140 degrees) at 7 MPH (6 KT) (direction variable):0
Visibility: greater than 7 mile(s):0
Sky conditions: overcast
Weather: Cumulonimbus clouds observed
Temperature: 77 F (25 C)
Dew Point: 66 F (19 C)
Relative Humidity: 69%
Pressure (altimeter): 29.91 in. Hg (1013 hPa)
ob: LFMD 201430Z AUTO 14006KT 100V180 9999 BKN026 BKN031 OVC040 25/19 Q1013 TEMPO VRB15G30KT 2000 TSRA BKN030CB
cycle: 14

Station Type Date Time Source
LFMD TAF 2020/09/20 15:21 UTC NOAA

TAF LFMD 201400Z 2015/2115 09010KT CAVOK
TEMPO 2015/2021 VRB10KT 4000 SHRA BKN030TCU PROB30
TEMPO 2015/2021 VRB15G30KT 2000 TSRA BKN030CB
BECMG 2020/2022 35005KT
BECMG 2109/2111 16010KT
TEMPO 2111/2115 4500 SHRA SCT025TCU BKN090 PROB30
TEMPO 2112/2115 VRB10KT -TSRA BKN020 SCT025CB

Example: see airport list